createdAt,value
2022-12-03T00:00:22.603Z,85.79
2022-12-03T00:03:11.029Z,85.14
2022-12-03T00:05:41.876Z,84.58
2022-12-03T00:08:17.053Z,85.07
2022-12-03T00:10:45.307Z,85.61
2022-12-03T00:13:13.560Z,85.64
2022-12-03T00:15:41.868Z,85.84
2022-12-03T00:18:10.177Z,86.16
2022-12-03T00:20:38.441Z,85.79
2022-12-03T00:23:06.664Z,85.56
2022-12-03T00:25:35.043Z,85.18
2022-12-03T00:28:03.369Z,85.06
2022-12-03T00:30:31.607Z,84.88
2022-12-03T00:32:59.881Z,85.05
2022-12-03T00:35:29.695Z,84.79
2022-12-03T00:37:57.968Z,85.15
2022-12-03T00:40:26.238Z,85.02
2022-12-03T00:42:54.486Z,85.17
2022-12-03T00:45:22.793Z,85.21
2022-12-03T00:47:51.075Z,85.44
2022-12-03T00:50:19.383Z,85.50
2022-12-03T00:52:47.592Z,86.26
2022-12-03T00:55:16.676Z,86.35
2022-12-03T00:57:44.965Z,86.32
2022-12-03T01:00:13.870Z,86.32
2022-12-03T01:02:42.195Z,85.44
2022-12-03T01:05:10.574Z,85.44
2022-12-03T01:07:38.910Z,85.60
2022-12-03T01:10:07.893Z,85.71
2022-12-03T01:12:36.239Z,85.40
2022-12-03T01:15:05.666Z,85.34
2022-12-03T01:17:33.942Z,85.15
2022-12-03T01:20:03.326Z,85.66
2022-12-03T01:22:31.613Z,85.78
2022-12-03T01:24:59.886Z,85.46
2022-12-03T01:27:28.119Z,85.79
2022-12-03T01:29:56.314Z,85.96
2022-12-03T01:32:24.505Z,86.31
2022-12-03T01:34:55.594Z,86.12
2022-12-03T01:37:26.054Z,86.00
2022-12-03T01:39:54.541Z,86.15
2022-12-03T01:42:26.375Z,85.92
2022-12-03T01:44:58.327Z,85.59
2022-12-03T01:47:31.822Z,85.53
2022-12-03T01:50:11.687Z,85.31
2022-12-03T01:52:41.020Z,85.16
2022-12-03T01:55:18.148Z,85.35
2022-12-03T01:57:50.245Z,85.63
2022-12-03T02:00:21.777Z,85.53
2022-12-03T02:02:53.535Z,85.53
2022-12-03T02:05:27.734Z,85.65
2022-12-03T02:07:56.854Z,85.90
2022-12-03T02:10:36.325Z,86.14
2022-12-03T02:13:11.105Z,85.91
2022-12-03T02:15:40.583Z,85.96
2022-12-03T02:18:10.047Z,86.00
2022-12-03T02:21:05.000Z,86.02
2022-12-03T02:23:42.994Z,85.97
2022-12-03T02:26:11.357Z,86.19
2022-12-03T02:28:39.974Z,85.82
2022-12-03T02:31:08.527Z,85.88
2022-12-03T02:33:36.925Z,85.57
2022-12-03T02:36:05.720Z,85.85
2022-12-03T02:38:35.840Z,85.82
2022-12-03T02:41:08.583Z,85.45
2022-12-03T02:43:37.106Z,85.33
2022-12-03T02:46:08.748Z,85.42
2022-12-03T02:48:40.138Z,85.62
2022-12-03T02:51:11.038Z,85.42
2022-12-03T02:53:42.616Z,85.69
2022-12-03T02:56:14.183Z,85.55
2022-12-03T02:58:45.224Z,85.84
2022-12-03T03:01:15.661Z,85.76
2022-12-03T03:03:45.823Z,85.79
2022-12-03T03:06:15.940Z,85.71
2022-12-03T03:08:44.341Z,85.75
2022-12-03T03:11:12.754Z,85.48
2022-12-03T03:13:41.240Z,85.58
2022-12-03T03:16:10.067Z,85.36
2022-12-03T03:18:38.824Z,85.59
2022-12-03T03:21:07.236Z,85.80
2022-12-03T03:23:35.451Z,85.49
2022-12-03T03:26:08.941Z,85.59
2022-12-03T03:28:40.427Z,85.62
2022-12-03T03:31:11.443Z,85.49
2022-12-03T03:33:41.771Z,85.81
2022-12-03T03:36:10.409Z,85.72
2022-12-03T03:38:39.428Z,85.85
2022-12-03T03:41:09.504Z,85.71
2022-12-03T03:43:39.058Z,85.96
2022-12-03T03:46:08.140Z,85.89
2022-12-03T03:48:36.708Z,85.81
2022-12-03T03:51:09.756Z,85.66
2022-12-03T03:53:44.457Z,85.83
2022-12-03T03:56:12.788Z,85.67
2022-12-03T03:58:41.397Z,85.71
2022-12-03T04:01:12.694Z,85.49
2022-12-03T04:03:41.341Z,85.21
2022-12-03T04:06:10.059Z,84.81
2022-12-03T04:08:38.252Z,84.88
2022-12-03T04:11:25.382Z,85.17
2022-12-03T04:13:53.663Z,85.25
2022-12-03T04:16:22.014Z,85.10
2022-12-03T04:18:50.982Z,85.15
2022-12-03T04:21:41.136Z,85.29
2022-12-03T04:24:11.288Z,85.42
2022-12-03T04:26:58.100Z,85.08
2022-12-03T04:29:26.389Z,85.14
2022-12-03T04:32:13.045Z,85.46
2022-12-03T04:34:59.694Z,85.32
2022-12-03T04:37:28.042Z,85.04
2022-12-03T04:39:56.308Z,84.80
2022-12-03T04:42:24.516Z,84.92
2022-12-03T04:44:53.163Z,85.20
2022-12-03T04:47:22.059Z,85.21
2022-12-03T04:49:51.841Z,85.21
2022-12-03T04:52:21.251Z,85.45
2022-12-03T04:54:49.488Z,85.01
2022-12-03T04:57:18.037Z,84.80
2022-12-03T04:59:46.331Z,84.76
2022-12-03T05:02:14.734Z,85.00
2022-12-03T05:04:43.936Z,85.20
2022-12-03T05:07:12.430Z,84.89
2022-12-03T05:09:40.651Z,84.84
2022-12-03T05:12:08.940Z,84.94
2022-12-03T05:14:37.247Z,85.05
2022-12-03T05:17:05.593Z,84.60
2022-12-03T05:19:52.243Z,84.63
2022-12-03T05:22:20.486Z,84.96
2022-12-03T05:24:48.720Z,85.22
2022-12-03T05:27:23.187Z,85.16
2022-12-03T05:29:53.048Z,85.16
2022-12-03T05:32:21.444Z,85.22
2022-12-03T05:34:49.756Z,84.97
2022-12-03T05:37:17.995Z,84.91
2022-12-03T05:39:46.212Z,84.83
2022-12-03T05:42:33.211Z,85.14
2022-12-03T05:45:01.412Z,85.43
2022-12-03T05:47:29.645Z,85.59
2022-12-03T05:49:57.950Z,85.68
2022-12-03T05:52:26.137Z,85.59
2022-12-03T05:54:55.474Z,85.54
2022-12-03T05:57:24.012Z,85.82
2022-12-03T05:59:52.210Z,85.92
2022-12-03T06:02:20.639Z,85.52
2022-12-03T06:04:49.305Z,85.21
2022-12-03T06:07:17.555Z,85.96
2022-12-03T06:09:46.201Z,85.51
2022-12-03T06:12:14.481Z,85.62
2022-12-03T06:14:42.718Z,85.88
2022-12-03T06:17:11.068Z,85.96
2022-12-03T06:19:39.352Z,85.73
2022-12-03T06:22:07.622Z,85.81
2022-12-03T06:24:35.849Z,85.60
2022-12-03T06:27:05.488Z,85.58
2022-12-03T06:29:33.768Z,85.80
2022-12-03T06:32:02.362Z,86.00
2022-12-03T06:34:31.038Z,85.85
2022-12-03T06:36:59.308Z,85.94
2022-12-03T06:39:27.752Z,85.99
2022-12-03T06:41:56.043Z,85.77
2022-12-03T06:44:24.359Z,85.71
2022-12-03T06:46:52.770Z,86.04
2022-12-03T06:49:21.225Z,86.23
2022-12-03T06:51:49.458Z,86.33
2022-12-03T06:54:17.769Z,87.24
2022-12-03T06:56:47.260Z,87.35
2022-12-03T06:59:15.564Z,87.20
2022-12-03T07:01:43.812Z,87.14
2022-12-03T07:04:12.110Z,87.14
2022-12-03T07:06:40.288Z,87.19
2022-12-03T07:09:08.554Z,87.52
2022-12-03T07:11:40.635Z,87.23
2022-12-03T07:14:11.388Z,87.84
2022-12-03T07:16:40.634Z,87.83
2022-12-03T07:19:09.877Z,87.71
2022-12-03T07:21:38.547Z,87.31
2022-12-03T07:24:07.104Z,87.54
2022-12-03T07:26:35.717Z,87.73
2022-12-03T07:29:04.304Z,87.77
2022-12-03T07:31:32.706Z,87.83
2022-12-03T07:34:02.448Z,87.47
2022-12-03T07:36:30.744Z,87.84
2022-12-03T07:38:58.992Z,87.63
2022-12-03T07:41:27.290Z,87.57
2022-12-03T07:43:55.545Z,87.77
2022-12-03T07:46:23.955Z,87.88
2022-12-03T07:48:52.308Z,87.45
2022-12-03T07:51:20.576Z,86.97
2022-12-03T07:53:48.863Z,86.95
2022-12-03T07:56:17.071Z,87.18
2022-12-03T07:58:45.300Z,86.97
2022-12-03T08:01:13.712Z,86.42
2022-12-03T08:03:43.167Z,86.62
2022-12-03T08:06:11.470Z,86.58
2022-12-03T08:08:40.102Z,86.63
2022-12-03T08:11:14.004Z,86.21
2022-12-03T08:13:42.626Z,86.08
2022-12-03T08:16:17.003Z,85.54
2022-12-03T08:18:46.638Z,85.73
2022-12-03T08:21:18.293Z,86.54
2022-12-03T08:23:46.625Z,86.67
2022-12-03T08:26:23.293Z,86.33
2022-12-03T08:28:53.204Z,86.22
2022-12-03T08:31:32.280Z,86.26
2022-12-03T08:34:21.070Z,85.72
2022-12-03T08:36:59.330Z,84.93
2022-12-03T08:39:37.995Z,85.15
2022-12-03T08:42:43.344Z,85.08
2022-12-03T08:45:29.719Z,85.00
2022-12-03T08:48:18.853Z,84.78
2022-12-03T08:50:47.586Z,85.22
2022-12-03T08:53:38.516Z,85.06
2022-12-03T08:56:23.838Z,85.28
2022-12-03T08:59:31.079Z,85.59
2022-12-03T09:01:59.980Z,85.53
2022-12-03T09:04:46.308Z,85.57
2022-12-03T09:07:14.546Z,85.24
2022-12-03T09:09:42.794Z,85.34
2022-12-03T09:12:11.013Z,85.46
2022-12-03T09:14:39.324Z,85.34
2022-12-03T09:17:07.741Z,85.36
2022-12-03T09:19:38.978Z,85.71
2022-12-03T09:22:09.632Z,85.63
2022-12-03T09:24:37.934Z,86.09
2022-12-03T09:27:06.148Z,85.81
2022-12-03T09:29:34.515Z,86.07
2022-12-03T09:32:02.918Z,86.38
2022-12-03T09:34:31.273Z,85.97
2022-12-03T09:36:59.622Z,86.24
2022-12-03T09:39:27.876Z,86.56
2022-12-03T09:41:56.351Z,86.97
2022-12-03T09:44:24.708Z,86.22
2022-12-03T09:46:53.036Z,86.24
2022-12-03T09:49:21.398Z,86.36
2022-12-03T09:51:49.693Z,86.28
2022-12-03T09:54:26.256Z,86.31
2022-12-03T09:56:55.989Z,86.65
2022-12-03T09:59:27.269Z,86.73
2022-12-03T10:01:55.947Z,86.55
2022-12-03T10:04:24.859Z,86.57
2022-12-03T10:06:53.235Z,86.47
2022-12-03T10:09:27.506Z,86.82
2022-12-03T10:11:57.486Z,86.75
2022-12-03T10:14:26.362Z,86.98
2022-12-03T10:16:55.255Z,87.07
2022-12-03T10:19:29.032Z,87.15
2022-12-03T10:21:58.072Z,86.77
2022-12-03T10:24:32.381Z,86.68
2022-12-03T10:27:04.310Z,86.73
2022-12-03T10:29:35.498Z,86.70
2022-12-03T10:32:08.028Z,86.44
2022-12-03T10:34:37.776Z,86.44
2022-12-03T10:37:13.491Z,86.34
2022-12-03T10:39:56.857Z,86.36
2022-12-03T10:42:31.555Z,86.19
2022-12-03T10:45:19.576Z,86.21
2022-12-03T10:48:11.089Z,85.90
2022-12-03T10:50:48.702Z,85.93
2022-12-03T10:53:17.958Z,85.37
2022-12-03T10:55:47.866Z,85.63
2022-12-03T10:58:21.680Z,85.44
2022-12-03T11:00:52.030Z,85.18
2022-12-03T11:03:26.634Z,85.02
2022-12-03T11:05:56.549Z,85.30
2022-12-03T11:08:28.000Z,85.50
2022-12-03T11:11:07.338Z,85.39
2022-12-03T11:13:35.594Z,85.56
2022-12-03T11:16:08.389Z,85.72
2022-12-03T11:18:36.875Z,85.78
2022-12-03T11:21:17.002Z,85.54
2022-12-03T11:23:46.020Z,85.82
2022-12-03T11:26:19.497Z,85.72
2022-12-03T11:28:53.144Z,85.72
2022-12-03T11:31:46.712Z,85.62
2022-12-03T11:34:18.192Z,85.63
2022-12-03T11:37:11.020Z,85.35
2022-12-03T11:39:45.013Z,85.47
2022-12-03T11:42:28.129Z,85.40
2022-12-03T11:45:19.122Z,85.66
2022-12-03T11:48:02.317Z,85.69
2022-12-03T11:50:40.100Z,85.67
2022-12-03T11:53:13.337Z,85.63
2022-12-03T11:55:47.375Z,85.56
2022-12-03T11:58:30.605Z,85.31
2022-12-03T12:01:01.777Z,85.20
2022-12-03T12:03:35.922Z,85.21
2022-12-03T12:06:09.824Z,85.17
2022-12-03T12:08:59.229Z,84.93
2022-12-03T12:11:32.711Z,84.81
2022-12-03T12:14:04.941Z,84.68
2022-12-03T12:16:50.851Z,84.67
2022-12-03T12:20:10.608Z,84.70
2022-12-03T12:22:39.511Z,84.79
2022-12-03T12:25:29.613Z,84.94
2022-12-03T12:27:57.883Z,84.53
2022-12-03T12:30:26.193Z,84.57
2022-12-03T12:33:33.365Z,84.63
2022-12-03T12:36:08.346Z,84.27
2022-12-03T12:38:36.664Z,84.41
2022-12-03T12:41:10.038Z,85.00
2022-12-03T12:43:39.673Z,84.48
2022-12-03T12:46:46.167Z,84.49
2022-12-03T12:49:02.432Z,84.70
2022-12-03T12:51:30.917Z,84.61
2022-12-03T12:53:59.215Z,85.08
2022-12-03T12:56:32.282Z,84.93
2022-12-03T12:59:15.745Z,84.77
2022-12-03T13:01:46.012Z,85.15
2022-12-03T13:04:17.101Z,85.09
2022-12-03T13:06:46.987Z,84.84
2022-12-03T13:09:21.813Z,84.73
2022-12-03T13:11:54.497Z,84.72
2022-12-03T13:14:24.162Z,84.93
2022-12-03T13:16:55.372Z,84.57
2022-12-03T13:19:29.644Z,84.92
2022-12-03T13:22:02.005Z,84.58
2022-12-03T13:24:43.943Z,84.70
2022-12-03T13:27:17.886Z,84.55
2022-12-03T13:30:00.831Z,84.68
2022-12-03T13:32:35.082Z,84.75
2022-12-03T13:35:12.220Z,84.94
2022-12-03T13:37:40.506Z,84.90
2022-12-03T13:40:35.085Z,85.08
2022-12-03T13:43:12.843Z,84.95
2022-12-03T13:45:44.232Z,85.16
2022-12-03T13:48:21.790Z,84.88
2022-12-03T13:50:52.877Z,84.97
2022-12-03T13:53:37.621Z,84.83
2022-12-03T13:56:21.037Z,85.02
2022-12-03T13:58:49.448Z,84.97
2022-12-03T14:01:17.818Z,84.94
2022-12-03T14:03:46.215Z,85.18
2022-12-03T14:06:14.594Z,85.13
2022-12-03T14:08:42.914Z,85.10
2022-12-03T14:11:31.292Z,84.75
2022-12-03T14:13:59.679Z,84.95
2022-12-03T14:16:28.061Z,84.86
2022-12-03T14:18:56.319Z,85.18
2022-12-03T14:21:24.608Z,85.46
2022-12-03T14:23:53.092Z,85.31
2022-12-03T14:26:21.326Z,85.69
2022-12-03T14:28:49.570Z,85.97
2022-12-03T14:31:17.888Z,85.96
2022-12-03T14:33:46.201Z,85.87
2022-12-03T14:36:14.480Z,85.79
2022-12-03T14:38:42.813Z,85.33
2022-12-03T14:41:30.950Z,85.43
2022-12-03T14:43:59.162Z,85.71
2022-12-03T14:46:27.429Z,85.62
2022-12-03T14:48:55.669Z,85.62
2022-12-03T14:51:23.969Z,85.70
2022-12-03T14:53:52.223Z,85.71
2022-12-03T14:56:20.673Z,85.82
2022-12-03T14:58:48.940Z,85.70
2022-12-03T15:01:17.237Z,85.67
2022-12-03T15:03:45.571Z,85.55
2022-12-03T15:06:13.828Z,85.54
2022-12-03T15:08:42.183Z,85.77
2022-12-03T15:11:10.598Z,85.71
2022-12-03T15:13:38.954Z,85.59
2022-12-03T15:16:07.686Z,85.68
2022-12-03T15:18:35.991Z,85.36
2022-12-03T15:21:04.254Z,85.35
2022-12-03T15:23:32.529Z,85.81
2022-12-03T15:26:00.895Z,85.94
2022-12-03T15:28:29.211Z,86.43
2022-12-03T15:30:57.738Z,86.96
2022-12-03T15:33:26.121Z,86.99
2022-12-03T15:35:54.447Z,87.78
2022-12-03T15:38:22.770Z,87.33
2022-12-03T15:40:51.057Z,87.84
2022-12-03T15:43:19.679Z,87.62
2022-12-03T15:45:48.123Z,87.70
2022-12-03T15:48:16.463Z,88.22
2022-12-03T15:50:44.643Z,87.68
2022-12-03T15:53:12.913Z,87.74
2022-12-03T15:55:41.214Z,87.59
2022-12-03T15:58:09.543Z,87.86
2022-12-03T16:00:37.904Z,87.97
2022-12-03T16:03:06.194Z,88.18
2022-12-03T16:05:34.518Z,88.06
2022-12-03T16:08:02.970Z,88.12
2022-12-03T16:10:31.474Z,87.48
2022-12-03T16:12:59.621Z,87.50
2022-12-03T16:15:27.834Z,87.97
2022-12-03T16:17:56.085Z,87.76
2022-12-03T16:20:24.313Z,88.28
2022-12-03T16:22:52.677Z,88.42
2022-12-03T16:25:21.060Z,88.18
2022-12-03T16:27:49.399Z,88.13
2022-12-03T16:30:18.203Z,88.61
2022-12-03T16:32:46.485Z,88.75
2022-12-03T16:35:14.853Z,88.60
2022-12-03T16:37:43.126Z,88.88
2022-12-03T16:40:12.187Z,88.73
2022-12-03T16:42:40.951Z,88.93
2022-12-03T16:45:09.767Z,88.67
2022-12-03T16:47:38.326Z,88.97
2022-12-03T16:50:11.594Z,88.79
2022-12-03T16:52:42.835Z,88.88
2022-12-03T16:55:11.121Z,88.62
2022-12-03T16:57:39.372Z,88.61
2022-12-03T17:00:08.260Z,88.20
2022-12-03T17:02:36.589Z,87.70
2022-12-03T17:05:05.174Z,87.40
2022-12-03T17:07:33.486Z,88.43
2022-12-03T17:10:01.761Z,88.98
2022-12-03T17:12:42.205Z,89.21
2022-12-03T17:15:16.399Z,89.45
2022-12-03T17:17:44.686Z,89.61
2022-12-03T17:20:14.883Z,89.71
2022-12-03T17:22:43.308Z,89.20
2022-12-03T17:25:11.881Z,89.42
2022-12-03T17:27:45.174Z,89.52
2022-12-03T17:30:14.605Z,89.50
2022-12-03T17:32:43.440Z,89.43
2022-12-03T17:35:12.427Z,89.14
2022-12-03T17:37:41.067Z,88.82
2022-12-03T17:40:11.852Z,89.04
2022-12-03T17:42:40.118Z,88.58
2022-12-03T17:45:09.152Z,88.50
2022-12-03T17:47:37.505Z,89.04
2022-12-03T17:50:07.509Z,89.01
2022-12-03T17:52:35.809Z,89.08
2022-12-03T17:55:16.288Z,88.29
2022-12-03T17:57:52.187Z,88.68
2022-12-03T18:00:20.569Z,88.74
2022-12-03T18:02:48.819Z,88.63
2022-12-03T18:05:17.159Z,88.53
2022-12-03T18:07:45.498Z,88.35
2022-12-03T18:10:13.690Z,88.24
2022-12-03T18:12:41.939Z,88.20
2022-12-03T18:15:10.720Z,88.84
2022-12-03T18:17:39.004Z,88.69
2022-12-03T18:20:07.753Z,88.96
2022-12-03T18:22:36.427Z,88.95
2022-12-03T18:25:05.360Z,88.31
2022-12-03T18:27:33.973Z,88.54
2022-12-03T18:30:02.311Z,88.46
2022-12-03T18:32:30.661Z,88.27
2022-12-03T18:34:58.925Z,88.62
2022-12-03T18:37:28.972Z,89.05
2022-12-03T18:39:58.301Z,89.72
2022-12-03T18:42:27.244Z,89.93
2022-12-03T18:44:56.674Z,89.55
2022-12-03T18:47:28.901Z,89.42
2022-12-03T18:49:57.769Z,88.76
2022-12-03T18:52:26.335Z,89.01
2022-12-03T18:54:55.484Z,89.19
2022-12-03T18:57:23.983Z,89.24
2022-12-03T18:59:52.281Z,89.05
2022-12-03T19:05:10.521Z,89.47
2022-12-03T19:07:38.938Z,89.99
2022-12-03T19:10:07.999Z,89.70
2022-12-03T19:12:37.280Z,90.04
2022-12-03T19:15:06.356Z,90.27
2022-12-03T19:17:34.653Z,90.11
2022-12-03T19:20:03.386Z,89.50
2022-12-03T19:22:31.703Z,89.71
2022-12-03T19:24:59.963Z,89.93
2022-12-03T19:27:31.833Z,89.44
2022-12-03T19:30:00.116Z,89.66
2022-12-03T19:32:28.463Z,89.35
2022-12-03T19:34:56.750Z,89.13
2022-12-03T19:37:25.140Z,89.03
2022-12-03T19:39:54.650Z,89.05
2022-12-03T19:42:23.238Z,88.87
2022-12-03T19:44:51.491Z,88.74
2022-12-03T19:47:20.037Z,88.81
2022-12-03T19:49:48.322Z,89.09
2022-12-03T19:52:16.592Z,89.09
2022-12-03T19:54:44.873Z,89.29
2022-12-03T19:57:15.769Z,89.13
2022-12-03T19:59:46.447Z,89.23
2022-12-03T20:02:14.789Z,89.98
2022-12-03T20:04:43.577Z,90.15
2022-12-03T20:07:11.782Z,90.12
2022-12-03T20:09:40.014Z,89.95
2022-12-03T20:12:08.201Z,89.62
2022-12-03T20:14:36.443Z,90.03
2022-12-03T20:17:04.791Z,90.25
2022-12-03T20:19:33.086Z,89.84
2022-12-03T20:22:03.017Z,90.16
2022-12-03T20:24:31.488Z,90.64
2022-12-03T20:26:59.725Z,90.17
2022-12-03T20:29:27.921Z,90.62
2022-12-03T20:31:56.358Z,90.62
2022-12-03T20:34:24.711Z,90.22
2022-12-03T20:36:52.955Z,90.33
2022-12-03T20:39:21.194Z,90.38
2022-12-03T20:41:49.710Z,90.33
2022-12-03T20:44:20.992Z,90.61
2022-12-03T20:46:49.704Z,90.51
2022-12-03T20:49:18.283Z,90.57
2022-12-03T20:51:47.432Z,90.68
2022-12-03T20:54:15.733Z,91.09
2022-12-03T20:56:44.064Z,91.17
2022-12-03T20:59:15.543Z,91.81
2022-12-03T21:01:44.260Z,92.04
2022-12-03T21:04:18.214Z,92.03
2022-12-03T21:06:46.516Z,91.66
2022-12-03T21:09:14.788Z,91.55
2022-12-03T21:11:43.908Z,91.87
2022-12-03T21:14:12.586Z,91.79
2022-12-03T21:19:31.352Z,91.60
2022-12-03T21:22:00.434Z,91.58
2022-12-03T21:24:30.316Z,91.60
2022-12-03T21:26:58.977Z,92.22
2022-12-03T21:29:27.171Z,92.20
2022-12-03T21:31:55.427Z,91.96
2022-12-03T21:34:24.236Z,91.51
2022-12-03T21:36:52.960Z,91.73
2022-12-03T21:39:21.265Z,92.47
2022-12-03T21:42:36.170Z,92.89
2022-12-03T21:44:38.583Z,92.40
2022-12-03T21:47:12.689Z,92.49
2022-12-03T21:49:43.346Z,92.07
2022-12-03T21:52:11.979Z,92.28
2022-12-03T21:54:40.215Z,91.92
2022-12-03T21:57:08.556Z,91.91
2022-12-03T21:59:36.874Z,92.04
2022-12-03T22:02:05.316Z,92.21
2022-12-03T22:04:33.753Z,91.92
2022-12-03T22:07:02.368Z,91.68
2022-12-03T22:09:31.870Z,91.85
2022-12-03T22:12:01.526Z,91.41
2022-12-03T22:14:30.576Z,91.57
2022-12-03T22:17:02.452Z,91.67
2022-12-03T22:19:31.796Z,91.67
2022-12-03T22:22:00.695Z,91.55
2022-12-03T22:24:29.504Z,91.81
2022-12-03T22:26:57.857Z,92.00
2022-12-03T22:29:26.152Z,91.96
2022-12-03T22:31:54.484Z,92.07
2022-12-03T22:34:22.759Z,91.58
2022-12-03T22:36:50.962Z,91.75
2022-12-03T22:39:19.255Z,92.02
2022-12-03T22:41:47.547Z,92.03
2022-12-03T22:44:15.897Z,91.96
2022-12-03T22:46:44.343Z,92.11
2022-12-03T22:49:13.760Z,92.36
2022-12-03T22:51:46.370Z,92.16
2022-12-03T22:54:18.160Z,92.13
2022-12-03T22:56:49.213Z,92.22
2022-12-03T22:59:17.564Z,91.96
2022-12-03T23:01:45.950Z,92.03
2022-12-03T23:04:14.468Z,92.04
2022-12-03T23:06:43.736Z,92.09
2022-12-03T23:09:12.041Z,92.41
2022-12-03T23:11:40.416Z,91.61
2022-12-03T23:14:08.626Z,91.70
2022-12-03T23:16:37.032Z,91.58
2022-12-03T23:19:05.479Z,91.43
2022-12-03T23:21:35.289Z,91.71
2022-12-03T23:24:05.539Z,91.76
2022-12-03T23:26:36.852Z,92.02
2022-12-03T23:29:06.724Z,91.91
2022-12-03T23:31:35.696Z,91.88
2022-12-03T23:34:04.724Z,91.76
2022-12-03T23:36:36.042Z,91.84
2022-12-03T23:39:06.851Z,91.85
2022-12-03T23:41:36.231Z,91.86
2022-12-03T23:44:07.078Z,91.67
2022-12-03T23:46:39.624Z,91.73
2022-12-03T23:49:07.987Z,91.54
2022-12-03T23:51:36.932Z,91.68
2022-12-03T23:54:05.202Z,91.43
2022-12-03T23:56:37.315Z,91.33
2022-12-03T23:59:05.718Z,91.38
